Main page
METAR-TAF:

METAR-TAF

Airports :

León Airport

León, Spain

latitude: 42-35N, longitude: 005-39W, elevation: 926 m

Current weather observation

The report was made 39 minutes ago, at 21:00 UTC
Wind 4 kt from the North, varying between Northwest and North/Northeast
Temperature 12°C
Humidity 76%
Pressure 1014 hPa
Visibility: 9000 m

METAR: LELN 172100Z AUTO 35004KT 310V020 9000 NSC 12/08 Q1014

Time: 23:39 (21:39 UTC)

Forecast

The report was made 4 hours and 39 minutes ago, at 17:00 UTC
Forecast valid from 17 at 18 UTC to 18 at 03 UTC
Wind 2 kt from variable directions
Visibility 10 km or more
Scattered clouds at a height of 4000 ft
Probability 30% :
Temporary
from 18 at 00 UTC to 18 at 03 UTC
rain

TAF: LELN 171700Z 1718/1803 VRB02KT 9999 SCT040 PROB30 TEMPO 1800/1803 RA

Weather observations and forecasts of more than 4000 airports (METAR and TAF reports).

The available stations are represented by yellow and red dots on the map.

Hover mouse over dot to see the name of the station.

Then click to see weather observations and forecasts.

To change the map : click on the green buttons with a black cross to zoom in, on the green button with a dash to zoom out, or on the green arrows for adjacent maps.


METAR-TAF: